This is the latest recevied weather packets stored in our database for station/object IW1AXR-3. If no packets are shown the sender has not sent any weather packets the latest 10 day(s).
| Time | Temp. | Humidity | Pressure | Rain* | Wind** | Luminosity | Snow |
|---|---|---|---|---|---|---|---|
| 1777250093 | 13.89° C | 75% | 1016.9 hPa | - | - | - | - |
| 1777248887 | 13.89° C | 75% | 1017.1 hPa | - | - | - | - |
| 1777248281 | 13.89° C | 75% | 1017.1 hPa | - | - | - | - |
| 1777245864 | 12.78° C | 83% | 1017.2 hPa | - | - | - | - |
| 1777245259 | 12.22° C | 82% | 1017.1 hPa | - | - | - | - |
| 1777244050 | 13.33° C | 76% | 1017.1 hPa | - | - | - | - |
| 1777242238 | 14.44° C | 74% | 1017 hPa | - | - | - | - |
| 1777241635 | 14.44° C | 74% | 1017.1 hPa | - | - | - | - |
| 1777238607 | 15° C | 73% | 1017 hPa | - | - | - | - |
| 1777236176 | 15° C | 73% | 1017 hPa | - | - | - | - |
| 1777233103 | 15.56° C | 76% | 1016.7 hPa | - | - | - | - |
| 1777230026 | 15° C | 79% | 1016.2 hPa | - | - | - | - |
| 1777226989 | 17.22° C | 71% | 1015.6 hPa | - | - | - | - |
| 1777225234 | 18.33° C | 64% | 1015.5 hPa | - | - | - | - |
| 1777225151 | 18.33° C | 64% | 1015.5 hPa | - | - | - | - |
| 1777223929 | 18.89° C | 61% | 1015.4 hPa | - | - | - | - |
| 1777222720 | 19.44° C | 58% | 1015.3 hPa | - | - | - | - |
| 1777214791 | 22.22° C | 50% | 1015.2 hPa | - | - | - | - |
| 1777212356 | 23.33° C | 46% | 1015.5 hPa | - | - | - | - |
| 1777208706 | 23.33° C | 46% | 1015.9 hPa | - | - | - | - |
| 1777208100 | 23.89° C | 45% | 1016 hPa | - | - | - | - |
| 1777207496 | 23.89° C | 47% | 1016.1 hPa | - | - | - | - |
| 1777206891 | 22.78° C | 47% | 1016.1 hPa | - | - | - | - |
| 1777205078 | 23.89° C | 46% | 1016.2 hPa | - | - | - | - |
| 1777204474 | 24.44° C | 46% | 1016.2 hPa | - | - | - | - |
* Rain since midnight (hover to see other rain measurements)
** Current wind speed in m/s (hover to see current wind gust speed)